Sweek Hollow, Vermont
Current Conditions -  °F | °C
As of 10:35 PM on Friday 24 Oct 2014 (Local Time) from KFSO Reporting Station
Clear Clear  
Wind Chill: 37°   Ceiling: Unl
Heat Index: 37°   Visibility: 10mi
Dew Point: 36°   Wind: 3mph
Humidity: 96%   Direction: 130°SE
Pressure: 29.82"   Gusts: NA
Location:  44.8776°N, 72.9201°W
Report Text: KFSO 250235Z AUTO 13003KT 10SM CLR 03/02 A2982 RMK AO2 T00300024
Loading
Personal Weather Stations






























Interactive Weather Map
Tropical Storm Tracking
New forecast layout! Learn more

10-Day Weather Forecast

Advertisements
Track Severe Weather on mobile